Time;durP1;ratioP1;P1;durP2;ratioP2;P2;SDS_P1;SDS_P2;PMS_P1;PMS_P2;Temp;Humidity;BMP_temperature;BMP_pressure;BME280_temperature;BME280_humidity;BME280_pressure;Samples;Min_cycle;Max_cycle;Signal;HPM_P1;HPM_P2
2021/05/07 00:01:44;;;;;;;6.97;2.80;;;27.20;92.10;;;;;;5107223;28;20023;-58
2021/05/07 00:04:17;;;;;;;5.10;2.42;;;27.20;92.00;;;;;;5107249;28;20036;-60
2021/05/07 00:06:44;;;;;;;6.45;2.40;;;27.20;92.00;;;;;;5106959;28;20047;-56
2021/05/07 00:09:11;;;;;;;11.60;2.80;;;27.20;92.20;;;;;;5106087;28;20189;-56
2021/05/07 00:11:37;;;;;;;25.52;5.10;;;27.20;92.30;;;;;;5106364;28;20012;-56
2021/05/07 00:14:05;;;;;;;17.15;5.63;;;27.10;92.50;;;;;;5105122;28;20024;-60
2021/05/07 00:16:33;;;;;;;20.75;4.90;;;27.10;92.50;;;;;;5106537;28;20300;-56
2021/05/07 00:19:00;;;;;;;20.48;4.70;;;27.20;92.70;;;;;;5105208;28;20028;-56
2021/05/07 00:21:26;;;;;;;15.75;4.82;;;27.10;92.80;;;;;;5088272;28;20046;-61
2021/05/07 00:23:53;;;;;;;9.02;4.28;;;27.20;92.90;;;;;;5106586;28;20024;-60
2021/05/07 00:26:19;;;;;;;8.80;3.60;;;27.20;93.10;;;;;;5105651;28;20257;-60
2021/05/07 00:28:46;;;;;;;9.57;2.95;;;27.10;93.10;;;;;;5106605;28;20048;-57
2021/05/07 00:31:13;;;;;;;4.88;2.00;;;27.10;93.10;;;;;;5088701;28;20354;-59
2021/05/07 00:33:39;;;;;;;6.65;1.83;;;27.00;92.90;;;;;;5106324;28;20289;-57
2021/05/07 00:36:06;;;;;;;12.95;2.40;;;27.00;92.90;;;;;;5103819;28;20075;-57
2021/05/07 00:38:33;;;;;;;5.80;1.70;;;27.00;92.90;;;;;;5103388;28;20062;-59
2021/05/07 00:41:00;;;;;;;14.48;1.42;;;27.00;92.80;;;;;;5105728;28;20245;-57
2021/05/07 00:43:27;;;;;;;8.95;1.30;;;27.00;92.80;;;;;;5106580;28;20031;-56
2021/05/07 00:45:55;;;;;;;6.97;1.80;;;27.00;93.10;;;;;;5106183;28;20051;-57
2021/05/07 00:48:22;;;;;;;9.52;1.95;;;27.00;92.80;;;;;;5087455;28;20078;-54
2021/05/07 00:50:49;;;;;;;5.50;1.95;;;27.00;92.80;;;;;;5106019;28;20024;-54
2021/05/07 00:53:20;;;;;;;4.78;1.73;;;27.10;92.80;;;;;;5088305;28;20043;-51
2021/05/07 00:55:46;;;;;;;5.32;1.48;;;27.10;92.60;;;;;;5106037;28;20024;-52
2021/05/07 00:58:13;;;;;;;10.68;1.98;;;27.10;92.60;;;;;;5106474;28;20236;-52
2021/05/07 01:00:40;;;;;;;7.85;1.50;;;27.10;92.50;;;;;;5106225;28;20016;-58
2021/05/07 01:03:07;;;;;;;5.75;1.52;;;27.10;92.40;;;;;;5105113;28;20027;-53
2021/05/07 01:05:34;;;;;;;12.48;2.33;;;27.10;92.40;;;;;;5105686;28;20313;-56
2021/05/07 01:08:01;;;;;;;9.55;2.33;;;27.10;92.40;;;;;;5127261;28;20038;-53
2021/05/07 01:10:28;;;;;;;6.50;2.28;;;27.10;92.30;;;;;;5126746;28;20020;-52
2021/05/07 01:12:55;;;;;;;4.88;2.35;;;27.10;92.40;;;;;;5126658;28;20024;-56
2021/05/07 01:15:23;;;;;;;5.10;2.40;;;27.10;92.30;;;;;;5126730;28;20023;-54
2021/05/07 01:17:56;;;;;;;5.38;1.92;;;27.10;92.30;;;;;;5126702;28;20091;-54
2021/05/07 01:20:36;;;;;;;9.93;2.22;;;27.10;92.30;;;;;;5126483;28;20026;-53
2021/05/07 01:23:08;;;;;;;9.93;1.98;;;27.10;92.30;;;;;;5126919;28;20031;-55
2021/05/07 01:25:36;;;;;;;;;;;27.10;92.30;;;;;;5126692;28;20015;-60
2021/05/07 01:28:07;;;;;;;5.05;1.70;;;27.10;92.40;;;;;;5125585;28;19915;-60
2021/05/07 01:30:36;;;;;;;9.73;1.58;;;27.00;92.50;;;;;;5126119;28;20037;-60
2021/05/07 01:33:03;;;;;;;6.70;3.45;;;27.00;92.50;;;;;;5125868;28;20024;-57
2021/05/07 01:35:33;;;;;;;10.38;5.13;;;27.00;92.70;;;;;;5126149;28;20034;-60
2021/05/07 01:38:01;;;;;;;8.75;5.18;;;27.00;92.60;;;;;;5125454;28;20335;-60
2021/05/07 01:40:31;;;;;;;10.55;4.57;;;26.90;92.60;;;;;;5125916;28;20324;-58
2021/05/07 01:43:00;;;;;;;8.57;3.63;;;27.00;92.50;;;;;;5090958;28;20196;-57
2021/05/07 01:45:29;;;;;;;9.95;3.83;;;27.00;92.40;;;;;;5107811;28;20324;-56
2021/05/07 01:47:58;;;;;;;9.55;3.42;;;27.00;92.40;;;;;;5125711;28;20034;-59
2021/05/07 01:50:28;;;;;;;8.65;3.38;;;27.00;92.30;;;;;;5125870;28;20257;-60
2021/05/07 01:52:56;;;;;;;6.70;2.75;;;27.00;92.30;;;;;;5125152;28;20086;-57
2021/05/07 01:55:35;;;;;;;6.03;2.50;;;27.00;92.20;;;;;;5124479;28;20246;-54
2021/05/07 01:58:05;;;;;;;7.43;2.25;;;27.00;92.00;;;;;;5124399;28;20015;-58
2021/05/07 02:00:34;;;;;;;3.95;1.85;;;27.00;91.90;;;;;;5107009;28;20035;-55
2021/05/07 02:03:04;;;;;;;5.95;1.70;;;27.00;91.80;;;;;;5124681;28;20036;-61
2021/05/07 02:05:34;;;;;;;9.55;1.90;;;27.00;91.70;;;;;;5124526;28;20011;-51
2021/05/07 02:08:03;;;;;;;5.15;1.98;;;27.00;91.60;;;;;;5124154;28;20123;-59
2021/05/07 02:10:30;;;;;;;5.53;2.25;;;27.00;91.60;;;;;;5124269;28;20016;-59
2021/05/07 02:12:59;;;;;;;5.85;2.53;;;27.00;91.50;;;;;;5106771;28;20076;-60
2021/05/07 02:15:27;;;;;;;7.72;2.97;;;27.00;91.40;;;;;;5121944;28;20331;-58
2021/05/07 02:17:54;;;;;;;6.68;3.10;;;27.00;91.40;;;;;;5124235;28;20098;-53
2021/05/07 02:20:26;;;;;;;7.28;3.10;;;27.00;91.40;;;;;;5124477;28;20034;-53
2021/05/07 02:22:53;;;;;;;6.03;2.80;;;27.00;91.30;;;;;;5124050;28;20239;-56
2021/05/07 02:25:23;;;;;;;6.43;2.80;;;27.00;91.30;;;;;;5124291;28;20071;-54
2021/05/07 02:27:53;;;;;;;5.70;3.08;;;27.00;91.10;;;;;;5124276;28;20177;-58
2021/05/07 02:30:23;;;;;;;9.75;3.05;;;27.00;91.20;;;;;;5122282;28;20028;-54
2021/05/07 02:32:49;;;;;;;7.47;2.50;;;26.90;91.20;;;;;;5123916;28;20039;-53
2021/05/07 02:35:16;;;;;;;6.75;2.20;;;26.90;91.20;;;;;;5124366;28;20074;-53
2021/05/07 02:37:43;;;;;;;8.80;2.50;;;26.90;91.10;;;;;;5105861;28;20030;-54
2021/05/07 02:40:10;;;;;;;7.93;2.72;;;26.90;91.00;;;;;;5124009;28;20015;-56
2021/05/07 02:42:37;;;;;;;9.85;2.65;;;26.90;91.00;;;;;;5124259;28;20185;-56
2021/05/07 02:45:07;;;;;;;9.20;2.47;;;26.90;91.00;;;;;;5124425;28;20209;-58
2021/05/07 02:47:34;;;;;;;7.10;1.98;;;26.90;91.10;;;;;;5124042;28;20045;-54
2021/05/07 02:50:03;;;;;;;5.35;1.95;;;26.90;91.00;;;;;;5121734;28;20054;-57
2021/05/07 02:52:29;;;;;;;6.95;1.67;;;26.90;91.00;;;;;;5123658;28;20042;-54
2021/05/07 02:54:56;;;;;;;5.10;1.33;;;26.90;90.80;;;;;;5123990;28;20028;-61
2021/05/07 02:57:23;;;;;;;5.53;1.50;;;26.90;90.80;;;;;;5123922;28;20011;-53
2021/05/07 02:59:49;;;;;;;6.53;1.58;;;26.90;90.80;;;;;;5124936;28;20043;-53
2021/05/07 03:02:16;;;;;;;6.55;1.00;;;26.90;90.70;;;;;;5123703;28;20023;-55
2021/05/07 03:04:43;;;;;;;4.03;1.02;;;26.90;90.80;;;;;;5124450;28;20334;-58
2021/05/07 03:07:09;;;;;;;4.22;1.10;;;26.90;90.70;;;;;;5124182;28;20115;-53
2021/05/07 03:09:36;;;;;;;4.22;1.10;;;26.80;90.70;;;;;;5124503;28;20024;-59
2021/05/07 03:12:03;;;;;;;3.92;1.00;;;26.80;90.60;;;;;;5123560;28;20031;-56
2021/05/07 03:14:29;;;;;;;6.97;1.25;;;26.80;90.60;;;;;;5123849;28;20008;-55
2021/05/07 03:16:56;;;;;;;4.75;0.80;;;26.80;90.60;;;;;;5123403;28;20193;-54
2021/05/07 03:19:22;;;;;;;6.22;0.90;;;26.80;90.60;;;;;;5124154;28;20289;-53
2021/05/07 03:21:49;;;;;;;7.07;0.70;;;26.80;90.50;;;;;;5123550;28;20025;-58
2021/05/07 03:24:15;;;;;;;4.75;1.08;;;26.80;90.50;;;;;;5124021;28;20019;-55
2021/05/07 03:26:42;;;;;;;7.38;1.20;;;26.80;90.40;;;;;;5124197;28;20016;-52
2021/05/07 03:29:09;;;;;;;6.35;3.55;;;26.80;90.30;;;;;;5123211;28;20300;-59
2021/05/07 03:31:36;;;;;;;10.05;2.55;;;26.80;90.30;;;;;;5124049;28;20020;-59
2021/05/07 03:34:03;;;;;;;16.50;7.60;;;26.80;90.30;;;;;;5122891;28;20043;-57
2021/05/07 03:36:31;;;;;;;8.57;4.47;;;26.80;90.20;;;;;;5124163;28;20019;-55
2021/05/07 03:38:58;;;;;;;8.02;5.43;;;26.80;90.30;;;;;;5124496;28;20031;-56
2021/05/07 03:41:25;;;;;;;7.78;4.82;;;26.80;90.30;;;;;;5124025;28;20028;-56
2021/05/07 03:43:52;;;;;;;8.45;4.07;;;26.80;90.50;;;;;;5109938;28;20020;-55
2021/05/07 03:46:18;;;;;;;7.53;2.97;;;26.80;90.30;;;;;;5103731;28;20016;-55
2021/05/07 03:48:45;;;;;;;5.57;2.20;;;26.70;90.30;;;;;;5103737;28;20092;-60
2021/05/07 03:51:12;;;;;;;8.13;2.33;;;26.80;90.50;;;;;;5103646;28;20308;-57
2021/05/07 03:53:38;;;;;;;6.28;1.92;;;26.70;90.40;;;;;;5085751;28;20220;-54
2021/05/07 03:56:05;;;;;;;10.48;2.10;;;26.80;90.50;;;;;;5103828;28;20096;-56
2021/05/07 03:58:32;;;;;;;5.53;1.98;;;26.70;90.40;;;;;;5103911;28;20034;-60
2021/05/07 04:00:58;;;;;;;4.68;1.92;;;26.80;90.60;;;;;;5103516;28;20027;-55
2021/05/07 04:03:25;;;;;;;3.20;1.30;;;26.80;90.70;;;;;;5103762;28;20024;-55
2021/05/07 04:05:54;;;;;;;8.13;1.50;;;26.70;90.70;;;;;;5103628;28;20012;-55
2021/05/07 04:08:24;;;;;;;8.02;1.83;;;26.80;90.80;;;;;;5103754;28;20028;-54
2021/05/07 04:11:16;;;;;;;6.90;1.20;;;26.70;90.90;;;;;;5103556;28;20379;-54
2021/05/07 04:13:45;;;;;;;9.38;1.20;;;26.70;90.90;;;;;;5103478;28;20032;-54
2021/05/07 04:16:12;;;;;;;10.93;1.40;;;26.70;90.90;;;;;;5103490;28;20066;-54
2021/05/07 04:18:39;;;;;;;8.75;1.65;;;26.70;91.00;;;;;;5103717;28;20047;-55
2021/05/07 04:21:05;;;;;;;4.30;1.20;;;26.70;91.10;;;;;;5103680;28;20288;-54
2021/05/07 04:23:32;;;;;;;3.72;1.02;;;26.60;91.10;;;;;;5103878;28;20323;-54
2021/05/07 04:26:00;;;;;;;8.75;1.10;;;26.60;91.10;;;;;;5107566;28;20024;-55
2021/05/07 04:28:27;;;;;;;7.70;0.90;;;26.60;91.20;;;;;;5107310;28;20024;-57
2021/05/07 04:30:53;;;;;;;6.05;1.15;;;26.60;91.40;;;;;;5107262;28;20032;-58
2021/05/07 04:33:20;;;;;;;6.90;0.95;;;26.60;91.40;;;;;;5107219;28;20055;-56
2021/05/07 04:35:47;;;;;;;4.95;1.00;;;26.60;91.50;;;;;;5107028;28;20042;-56
2021/05/07 04:38:13;;;;;;;5.00;0.90;;;26.60;91.50;;;;;;5107098;28;20038;-55
2021/05/07 04:40:40;;;;;;;7.25;1.70;;;26.60;91.60;;;;;;5106884;28;20085;-52
2021/05/07 04:43:06;;;;;;;4.13;1.50;;;26.60;91.60;;;;;;5107095;28;20020;-55
2021/05/07 04:45:34;;;;;;;9.15;1.70;;;26.60;91.60;;;;;;5106839;28;20046;-54
2021/05/07 04:48:01;;;;;;;6.15;1.20;;;26.60;91.60;;;;;;5106919;28;20024;-55
2021/05/07 04:50:28;;;;;;;5.22;1.42;;;26.60;91.60;;;;;;5106778;28;20036;-59
2021/05/07 04:52:54;;;;;;;9.63;1.63;;;26.60;91.60;;;;;;5107090;28;20204;-57
2021/05/07 04:55:21;;;;;;;5.63;1.83;;;26.60;91.60;;;;;;5106990;28;20024;-55
2021/05/07 04:57:49;;;;;;;8.18;2.00;;;26.60;91.60;;;;;;5106539;28;20305;-57
2021/05/07 05:00:16;;;;;;;9.88;1.50;;;26.60;91.60;;;;;;5106326;28;20035;-57
2021/05/07 05:02:42;;;;;;;7.95;1.35;;;26.60;91.70;;;;;;5106348;28;20039;-56
2021/05/07 05:05:10;;;;;;;6.35;1.08;;;26.60;91.70;;;;;;5106636;28;20044;-53
2021/05/07 05:07:36;;;;;;;8.98;1.10;;;26.60;91.70;;;;;;5106061;28;20241;-54
2021/05/07 05:10:04;;;;;;;7.65;0.90;;;26.60;91.70;;;;;;5089223;28;20036;-56
2021/05/07 05:12:30;;;;;;;3.92;1.02;;;26.60;91.60;;;;;;5106548;28;20020;-56
2021/05/07 05:14:57;;;;;;;6.03;1.08;;;26.60;91.60;;;;;;5106570;28;20340;-57
2021/05/07 05:17:24;;;;;;;6.82;1.00;;;26.60;91.50;;;;;;5106313;28;20023;-51
2021/05/07 05:19:50;;;;;;;10.75;1.08;;;26.50;91.40;;;;;;5106778;28;20035;-56
2021/05/07 05:22:17;;;;;;;8.70;1.08;;;26.60;91.40;;;;;;5106128;28;20028;-54
2021/05/07 05:24:45;;;;;;;4.10;1.25;;;26.50;91.30;;;;;;5106730;28;20095;-54
2021/05/07 05:27:11;;;;;;;8.40;0.93;;;26.60;91.40;;;;;;5106051;28;20027;-52
2021/05/07 05:29:38;;;;;;;5.40;0.80;;;26.50;91.30;;;;;;5106851;28;20233;-54
2021/05/07 05:32:05;;;;;;;7.50;1.17;;;26.50;91.30;;;;;;5106409;28;20059;-60
2021/05/07 05:34:32;;;;;;;4.75;0.65;;;26.60;91.40;;;;;;5106427;28;20024;-58
2021/05/07 05:36:59;;;;;;;7.70;1.10;;;26.50;91.40;;;;;;5105264;28;20028;-54
2021/05/07 05:39:25;;;;;;;5.10;0.90;;;26.50;91.40;;;;;;5106358;28;20027;-55
2021/05/07 05:41:52;;;;;;;3.75;0.80;;;26.50;91.30;;;;;;5105723;28;20016;-54
2021/05/07 05:44:18;;;;;;;5.72;0.65;;;26.50;91.20;;;;;;5106027;28;20030;-56
2021/05/07 05:46:45;;;;;;;3.60;0.55;;;26.50;91.30;;;;;;5105703;28;20020;-55
2021/05/07 05:49:12;;;;;;;11.25;0.90;;;26.50;91.20;;;;;;5106261;28;20047;-56
2021/05/07 05:51:38;;;;;;;2.28;0.50;;;26.50;91.20;;;;;;5105569;28;20038;-60
2021/05/07 05:54:05;;;;;;;5.20;0.70;;;26.50;91.20;;;;;;5106253;28;20024;-56
2021/05/07 05:56:32;;;;;;;3.60;0.80;;;26.50;91.10;;;;;;5105531;28;20055;-58
2021/05/07 05:58:59;;;;;;;4.57;0.50;;;26.50;91.00;;;;;;5106026;28;20087;-53
2021/05/07 06:01:25;;;;;;;6.30;0.70;;;26.50;90.90;;;;;;5105894;28;20209;-54
2021/05/07 06:03:52;;;;;;;7.68;0.70;;;26.50;90.90;;;;;;5105744;28;20024;-55
2021/05/07 06:06:19;;;;;;;3.53;0.60;;;26.50;90.80;;;;;;5105159;28;20032;-58
2021/05/07 06:08:45;;;;;;;8.88;0.73;;;26.50;90.50;;;;;;5105593;28;20164;-53
2021/05/07 06:11:12;;;;;;;5.75;0.80;;;26.40;90.40;;;;;;5105201;28;20024;-56
2021/05/07 06:13:39;;;;;;;4.18;0.98;;;26.40;90.40;;;;;;5105426;28;20023;-57
2021/05/07 06:16:05;;;;;;;8.45;0.77;;;26.40;90.30;;;;;;5105284;28;20028;-54
2021/05/07 06:18:32;;;;;;;2.63;0.43;;;26.40;90.40;;;;;;5105360;28;20028;-54
2021/05/07 06:20:59;;;;;;;4.32;0.40;;;26.40;90.30;;;;;;5105090;28;20079;-53
2021/05/07 06:23:25;;;;;;;3.08;0.70;;;26.40;90.30;;;;;;5105401;28;20020;-55
2021/05/07 06:25:52;;;;;;;5.22;0.70;;;26.40;90.10;;;;;;5105061;28;20012;-57
2021/05/07 06:28:19;;;;;;;4.05;0.60;;;26.40;90.10;;;;;;5104796;28;20040;-60
2021/05/07 06:30:46;;;;;;;3.42;0.47;;;26.40;90.20;;;;;;5104632;28;20020;-56
2021/05/07 06:33:12;;;;;;;3.78;0.88;;;26.40;90.30;;;;;;5105009;28;20053;-55
2021/05/07 06:35:39;;;;;;;8.35;0.70;;;26.40;90.40;;;;;;5104917;28;20031;-56
2021/05/07 06:38:10;;;;;;;4.43;0.80;;;26.40;90.40;;;;;;5104866;28;20039;-52
2021/05/07 06:40:37;;;;;;;7.35;0.75;;;26.40;90.50;;;;;;5104655;28;20043;-55
2021/05/07 06:43:05;;;;;;;3.88;0.80;;;26.40;90.60;;;;;;5104975;28;20027;-60
2021/05/07 06:45:31;;;;;;;5.85;0.80;;;26.30;90.60;;;;;;5104473;28;20054;-52
2021/05/07 06:47:58;;;;;;;10.40;0.80;;;26.30;90.60;;;;;;5104622;28;20020;-57
2021/05/07 06:50:25;;;;;;;1.27;0.40;;;26.30;90.60;;;;;;5104670;28;20057;-55
2021/05/07 06:52:51;;;;;;;4.85;0.68;;;26.30;90.60;;;;;;5104511;28;20236;-54
2021/05/07 06:55:18;;;;;;;6.25;0.85;;;26.30;90.60;;;;;;5104729;28;20290;-54
2021/05/07 06:57:46;;;;;;;8.98;0.85;;;26.30;90.70;;;;;;5104863;28;20091;-57
2021/05/07 07:00:13;;;;;;;9.25;0.98;;;26.30;90.60;;;;;;5104281;28;20052;-54
2021/05/07 07:02:40;;;;;;;4.43;0.55;;;26.30;90.60;;;;;;5104516;28;20200;-62
2021/05/07 07:05:07;;;;;;;7.82;0.50;;;26.30;90.60;;;;;;5104504;28;20102;-55
2021/05/07 07:10:43;;;;;;;5.90;0.70;;;26.30;90.50;;;;;;5104174;28;20042;-55
2021/05/07 07:13:09;;;;;;;5.47;0.70;;;26.30;90.50;;;;;;5104683;28;20028;-52
2021/05/07 07:15:36;;;;;;;3.85;0.70;;;26.30;90.60;;;;;;5104343;28;20077;-53
2021/05/07 07:18:03;;;;;;;5.95;0.80;;;26.30;90.50;;;;;;5104104;28;20087;-54
2021/05/07 07:20:30;;;;;;;5.93;0.75;;;26.30;90.60;;;;;;5104499;28;20073;-55
2021/05/07 07:23:00;;;;;;;8.18;0.63;;;26.30;90.70;;;;;;5104404;28;20036;-57
2021/05/07 07:25:27;;;;;;;3.85;0.35;;;26.30;90.70;;;;;;5104336;28;20019;-55
2021/05/07 07:27:54;;;;;;;9.68;0.95;;;26.20;90.70;;;;;;5103952;28;20020;-60
2021/05/07 07:30:21;;;;;;;4.35;0.50;;;26.20;90.70;;;;;;5104308;28;20027;-54
2021/05/07 07:32:47;;;;;;;4.97;0.75;;;26.20;90.70;;;;;;5104385;28;20035;-61
2021/05/07 07:35:16;;;;;;;3.60;0.50;;;26.20;90.70;;;;;;5103949;28;20030;-54
2021/05/07 07:37:42;;;;;;;5.47;0.70;;;26.20;90.70;;;;;;5103921;28;20109;-60
2021/05/07 07:40:10;;;;;;;6.20;0.90;;;26.20;90.70;;;;;;5103979;28;20030;-60
2021/05/07 07:42:36;;;;;;;2.88;0.40;;;26.20;90.80;;;;;;5103763;28;20020;-54
2021/05/07 07:45:04;;;;;;;5.03;0.60;;;26.20;90.70;;;;;;5104024;28;20300;-58
2021/05/07 07:47:30;;;;;;;6.80;0.70;;;26.20;90.80;;;;;;5103712;28;20012;-52
2021/05/07 07:49:57;;;;;;;9.20;0.60;;;26.10;90.70;;;;;;5103720;28;20031;-56
2021/05/07 07:52:24;;;;;;;11.57;0.93;;;26.10;90.70;;;;;;5103801;28;20019;-53
2021/05/07 07:54:50;;;;;;;3.95;0.85;;;26.10;90.60;;;;;;5103930;28;20043;-55
2021/05/07 07:57:17;;;;;;;4.03;0.50;;;26.10;90.60;;;;;;5103840;28;20273;-58
2021/05/07 07:59:43;;;;;;;7.35;0.80;;;26.10;90.40;;;;;;5106436;28;20031;-53
2021/05/07 08:02:10;;;;;;;5.38;0.68;;;26.10;90.40;;;;;;5107841;28;20305;-59
2021/05/07 08:04:37;;;;;;;7.13;0.60;;;26.10;90.30;;;;;;5108436;28;20027;-53
2021/05/07 08:07:03;;;;;;;7.80;0.70;;;26.10;90.30;;;;;;5107568;28;20285;-59
2021/05/07 08:09:30;;;;;;;6.82;0.63;;;26.10;90.30;;;;;;5108089;28;20073;-58
2021/05/07 08:11:57;;;;;;;3.22;0.50;;;26.10;90.30;;;;;;5107818;28;20020;-59
2021/05/07 08:14:23;;;;;;;3.63;0.70;;;26.00;90.30;;;;;;5107889;28;20260;-55
2021/05/07 08:16:50;;;;;;;4.05;0.60;;;26.00;90.30;;;;;;5107425;28;20015;-52
2021/05/07 08:19:16;;;;;;;5.63;0.52;;;26.00;90.40;;;;;;5107998;28;20130;-54
2021/05/07 08:21:43;;;;;;;5.78;0.80;;;26.00;90.50;;;;;;5107170;28;20024;-57
2021/05/07 08:24:10;;;;;;;6.35;0.68;;;26.00;90.50;;;;;;5107542;28;20058;-55
2021/05/07 08:26:37;;;;;;;2.05;0.50;;;26.00;90.50;;;;;;5107352;28;20035;-52
2021/05/07 08:29:04;;;;;;;6.15;0.65;;;26.00;90.60;;;;;;5107447;28;20091;-55
2021/05/07 08:31:31;;;;;;;5.97;0.60;;;26.00;90.70;;;;;;5106973;28;20028;-54
2021/05/07 08:33:57;;;;;;;2.55;0.50;;;26.00;90.80;;;;;;5107375;28;20028;-59
2021/05/07 08:36:25;;;;;;;7.72;0.77;;;26.00;90.80;;;;;;5107020;28;20023;-55
2021/05/07 08:38:52;;;;;;;7.18;0.90;;;26.00;90.80;;;;;;5107271;28;20032;-53
2021/05/07 08:41:19;;;;;;;3.90;0.50;;;26.00;90.90;;;;;;5106777;28;20028;-52
2021/05/07 08:43:45;;;;;;;5.57;1.00;;;25.90;90.80;;;;;;5107083;28;20027;-58
2021/05/07 08:46:13;;;;;;;6.85;0.70;;;25.90;90.90;;;;;;5106746;28;20019;-54
2021/05/07 08:48:40;;;;;;;8.27;0.77;;;25.90;90.90;;;;;;5106920;28;20287;-55
2021/05/07 08:51:07;;;;;;;9.73;1.10;;;25.90;91.00;;;;;;5106934;28;20052;-60
2021/05/07 08:53:34;;;;;;;8.60;1.00;;;25.90;90.90;;;;;;5106888;28;20115;-55
2021/05/07 08:56:08;;;;;;;10.15;0.60;;;25.90;91.00;;;;;;5106659;28;20020;-54
2021/05/07 08:58:35;;;;;;;7.30;0.60;;;25.90;91.10;;;;;;5106822;28;20027;-55
2021/05/07 09:01:02;;;;;;;5.10;0.55;;;25.80;91.20;;;;;;5106481;28;20063;-57
2021/05/07 09:03:44;;;;;;;8.20;0.73;;;25.80;91.30;;;;;;5106722;28;20065;-57
2021/05/07 09:06:29;;;;;;;5.57;0.70;;;25.80;91.30;;;;;;5106189;28;20059;-58
2021/05/07 09:08:55;;;;;;;4.80;0.70;;;25.80;91.30;;;;;;5106747;28;20050;-54
2021/05/07 09:11:22;;;;;;;6.03;0.70;;;25.80;91.30;;;;;;5105304;28;20199;-56
2021/05/07 09:13:48;;;;;;;3.17;0.47;;;25.80;91.20;;;;;;5106505;28;20032;-54
2021/05/07 09:16:15;;;;;;;4.03;0.60;;;25.80;91.10;;;;;;5106425;28;20020;-54
2021/05/07 09:18:46;;;;;;;4.63;0.40;;;25.70;91.00;;;;;;5106555;28;20063;-56
2021/05/07 09:21:14;;;;;;;8.97;1.20;;;25.70;90.90;;;;;;5106020;28;20312;-58
2021/05/07 09:23:47;;;;;;;5.20;0.80;;;25.70;90.90;;;;;;5106241;28;20262;-58
2021/05/07 09:26:15;;;;;;;10.52;0.70;;;25.70;90.90;;;;;;5106364;28;20231;-53
2021/05/07 09:28:57;;;;;;;5.90;1.02;;;25.70;90.90;;;;;;5106268;28;20186;-54
2021/05/07 09:31:24;;;;;;;75.50;68.18;;;25.70;90.80;;;;;;5106215;28;20362;-53
2021/05/07 09:33:53;;;;;;;17.40;15.15;;;25.70;90.80;;;;;;5105758;28;20095;-61
2021/05/07 09:36:27;;;;;;;13.48;9.65;;;25.70;90.90;;;;;;5105864;28;20016;-53
2021/05/07 09:38:56;;;;;;;8.07;4.93;;;25.70;90.90;;;;;;5105960;28;20296;-52
2021/05/07 09:41:23;;;;;;;9.13;2.90;;;25.70;90.90;;;;;;5105769;28;20027;-56
2021/05/07 09:43:50;;;;;;;8.07;2.30;;;25.70;90.90;;;;;;5106066;28;20048;-53
2021/05/07 09:46:16;;;;;;;6.15;2.22;;;25.70;90.90;;;;;;5105587;28;20012;-56
2021/05/07 09:48:43;;;;;;;6.65;2.17;;;25.70;91.00;;;;;;5105830;28;20055;-54
2021/05/07 09:51:12;;;;;;;3.90;1.90;;;25.60;91.00;;;;;;5105839;28;20087;-58
2021/05/07 09:53:41;;;;;;;7.13;2.30;;;25.70;91.10;;;;;;5105899;28;20031;-57
2021/05/07 09:56:16;;;;;;;9.55;2.20;;;25.60;91.20;;;;;;5105561;28;20027;-59
2021/05/07 09:58:43;;;;;;;11.43;1.58;;;25.60;91.30;;;;;;5104967;28;20091;-51
2021/05/07 10:01:11;;;;;;;12.68;1.80;;;25.60;91.30;;;;;;5105338;28;20079;-56
2021/05/07 10:03:38;;;;;;;7.55;2.00;;;25.60;91.30;;;;;;5105910;28;20327;-55
2021/05/07 10:06:06;;;;;;;7.57;2.28;;;25.60;91.30;;;;;;5105054;28;20034;-51
2021/05/07 10:08:44;;;;;;;8.25;1.95;;;25.60;91.30;;;;;;5105402;28;20043;-51
2021/05/07 10:11:11;;;;;;;7.95;2.30;;;25.60;91.30;;;;;;5105011;28;20016;-51
2021/05/07 10:13:39;;;;;;;6.43;2.10;;;25.60;91.30;;;;;;5105508;28;20232;-56
2021/05/07 10:16:08;;;;;;;7.55;2.75;;;25.60;91.30;;;;;;5105004;28;20031;-55
2021/05/07 10:18:36;;;;;;;9.98;3.92;;;25.60;91.30;;;;;;5105249;28;20042;-54
2021/05/07 10:21:10;;;;;;;11.35;6.25;;;25.60;91.40;;;;;;5104823;28;20193;-53
2021/05/07 10:23:49;;;;;;;17.55;10.50;;;25.60;91.60;;;;;;5104817;28;20083;-52
2021/05/07 10:26:16;;;;;;;20.85;11.93;;;25.60;91.50;;;;;;5104851;28;20034;-53
2021/05/07 10:28:48;;;;;;;22.10;12.20;;;25.60;91.50;;;;;;5105114;28;20219;-61
2021/05/07 10:31:17;;;;;;;17.35;10.80;;;25.60;91.60;;;;;;5104487;28;20235;-60
2021/05/07 10:34:03;;;;;;;16.92;10.40;;;25.60;91.60;;;;;;5104835;28;20284;-60
2021/05/07 10:36:41;;;;;;;14.75;11.20;;;25.60;91.60;;;;;;5104870;28;20048;-55
2021/05/07 10:39:22;;;;;;;19.60;11.93;;;25.60;91.70;;;;;;5104849;28;20023;-53
2021/05/07 10:41:51;;;;;;;16.23;11.23;;;25.60;91.70;;;;;;5104739;28;20057;-54
2021/05/07 10:44:21;;;;;;;15.43;10.90;;;25.60;91.70;;;;;;5104900;28;20276;-52
2021/05/07 10:47:11;;;;;;;13.98;10.40;;;25.60;92.00;;;;;;5104544;28;20028;-53
2021/05/07 10:49:42;;;;;;;17.52;8.38;;;25.60;91.80;;;;;;5104958;28;20051;-54
2021/05/07 10:52:11;;;;;;;12.02;8.60;;;25.60;91.70;;;;;;5104494;28;20039;-54
2021/05/07 10:54:43;;;;;;;15.43;9.18;;;25.60;91.70;;;;;;5104807;28;20024;-55
2021/05/07 10:57:25;;;;;;;16.33;8.05;;;25.60;91.70;;;;;;5104592;28;20292;-56
2021/05/07 11:00:03;;;;;;;11.95;6.05;;;25.60;91.70;;;;;;5104556;28;20312;-54
2021/05/07 11:02:43;;;;;;;14.70;5.80;;;25.60;91.70;;;;;;5104468;28;20016;-55
2021/05/07 11:05:11;;;;;;;11.13;4.32;;;25.60;91.70;;;;;;5104292;28;20020;-51
2021/05/07 11:07:53;;;;;;;10.63;3.63;;;25.60;91.70;;;;;;5118874;28;20092;-56
2021/05/07 11:10:27;;;;;;;11.32;4.05;;;25.60;91.70;;;;;;5107022;28;20031;-55
2021/05/07 11:12:54;;;;;;;14.60;4.45;;;25.60;91.70;;;;;;5124424;28;20027;-55
2021/05/07 11:15:21;;;;;;;11.18;3.60;;;25.60;91.80;;;;;;5124284;28;20023;-53
2021/05/07 11:17:59;;;;;;;7.30;2.42;;;25.60;91.80;;;;;;5124611;28;20028;-56
2021/05/07 11:20:52;;;;;;;5.68;2.30;;;25.60;91.60;;;;;;5124616;28;20035;-53
2021/05/07 11:23:18;;;;;;;;;;;25.60;91.60;;;;;;5102386;28;20064;-59
2021/05/07 11:25:47;;;;;;;7.93;2.33;;;25.60;91.60;;;;;;5125208;28;19904;-58
2021/05/07 11:28:19;;;;;;;12.52;3.70;;;25.70;91.50;;;;;;5124425;28;20023;-57
2021/05/07 11:30:53;;;;;;;15.07;3.85;;;25.70;91.40;;;;;;5124317;28;20027;-58
2021/05/07 11:33:24;;;;;;;13.23;2.20;;;25.80;91.50;;;;;;5123962;28;20024;-51
2021/05/07 11:36:13;;;;;;;11.93;2.20;;;25.70;91.30;;;;;;5128417;28;20096;-52
2021/05/07 11:38:41;;;;;;;17.90;5.32;;;25.80;91.40;;;;;;5129437;28;20016;-57
2021/05/07 11:41:22;;;;;;;11.60;3.05;;;25.90;91.30;;;;;;5128946;28;20308;-51
2021/05/07 11:43:54;;;;;;;22.65;7.20;;;25.90;91.10;;;;;;5128625;28;20024;-54
2021/05/07 11:46:22;;;;;;;12.75;4.88;;;25.90;91.10;;;;;;5126870;28;20066;-51
2021/05/07 11:48:50;;;;;;;15.40;4.28;;;25.90;91.20;;;;;;5127308;28;20227;-52
2021/05/07 11:51:18;;;;;;;15.82;6.95;;;25.90;91.10;;;;;;5126962;28;20023;-51
2021/05/07 11:53:46;;;;;;;17.77;7.18;;;26.00;91.10;;;;;;5127730;28;20023;-49
2021/05/07 11:56:21;;;;;;;16.80;5.40;;;25.90;91.10;;;;;;5128825;28;20227;-53
2021/05/07 11:58:53;;;;;;;15.73;5.95;;;26.00;91.10;;;;;;5129048;28;20023;-52
2021/05/07 12:01:23;;;;;;;13.65;4.60;;;26.00;91.10;;;;;;5128514;28;20329;-53
2021/05/07 12:03:52;;;;;;;28.83;12.75;;;26.00;91.00;;;;;;5129099;28;20038;-54
2021/05/07 12:06:26;;;;;;;21.23;7.90;;;26.00;91.20;;;;;;5128179;28;20187;-52
2021/05/07 12:08:54;;;;;;;11.13;4.30;;;26.00;91.20;;;;;;5128768;28;20038;-49
2021/05/07 12:11:21;;;;;;;12.77;4.68;;;26.00;91.10;;;;;;5127958;28;20019;-55
2021/05/07 12:13:49;;;;;;;9.35;4.18;;;26.00;91.10;;;;;;5128620;28;20031;-56
2021/05/07 12:16:27;;;;;;;12.82;4.15;;;26.00;91.10;;;;;;5128964;28;20019;-50
2021/05/07 12:18:54;;;;;;;8.43;3.58;;;26.00;91.00;;;;;;5128593;28;20286;-54
2021/05/07 12:21:21;;;;;;;14.40;3.28;;;26.00;91.00;;;;;;5128081;28;20027;-51
2021/05/07 12:23:50;;;;;;;9.43;2.80;;;26.00;91.00;;;;;;5128443;28;20182;-57
2021/05/07 12:26:19;;;;;;;10.90;2.70;;;26.10;91.00;;;;;;5128491;28;20014;-50
2021/05/07 12:28:55;;;;;;;8.77;2.20;;;26.10;91.00;;;;;;5128255;28;20030;-52
2021/05/07 12:31:30;;;;;;;9.90;2.35;;;26.10;91.00;;;;;;5128006;28;20086;-52
2021/05/07 12:33:57;;;;;;;8.80;2.15;;;26.10;91.00;;;;;;5128286;28;20050;-52
2021/05/07 12:36:24;;;;;;;6.05;1.90;;;26.10;91.10;;;;;;5128305;28;20039;-52
2021/05/07 12:38:54;;;;;;;15.02;3.40;;;26.20;91.10;;;;;;5128324;28;20260;-52
2021/05/07 12:41:22;;;;;;;15.60;3.53;;;26.20;91.10;;;;;;5127945;28;20031;-55
2021/05/07 12:43:50;;;;;;;6.40;1.60;;;26.20;91.10;;;;;;5128450;28;20023;-52
2021/05/07 12:46:19;;;;;;;6.55;1.52;;;26.20;91.00;;;;;;5127518;28;20061;-53
2021/05/07 12:48:49;;;;;;;8.15;1.70;;;26.20;90.70;;;;;;5127970;28;20032;-56
2021/05/07 12:51:17;;;;;;;15.20;2.75;;;26.30;90.60;;;;;;5128239;28;20199;-50
2021/05/07 12:53:44;;;;;;;9.15;2.15;;;26.30;90.70;;;;;;5128045;28;20032;-51
2021/05/07 12:56:19;;;;;;;8.75;1.50;;;26.40;90.60;;;;;;5127889;28;20053;-54